createdAt,value
2019-03-21T00:01:08.487Z,58.90
2019-03-21T00:03:15.024Z,59.00
2019-03-21T00:05:20.869Z,59.00
2019-03-21T00:07:28.370Z,59.00
2019-03-21T00:09:34.979Z,59.00
2019-03-21T00:11:59.329Z,58.80
2019-03-21T00:14:21.210Z,58.80
2019-03-21T00:16:27.159Z,58.80
2019-03-21T00:18:33.180Z,58.80
2019-03-21T00:20:39.260Z,58.80
2019-03-21T00:22:45.516Z,58.80
2019-03-21T00:24:51.785Z,58.80
2019-03-21T00:26:57.812Z,58.80
2019-03-21T00:29:03.662Z,58.80
2019-03-21T00:31:10.195Z,58.80
2019-03-21T00:33:16.545Z,58.90
2019-03-21T00:35:22.643Z,58.90
2019-03-21T00:37:28.661Z,59.00
2019-03-21T00:39:35.039Z,59.10
2019-03-21T00:41:41.435Z,59.20
2019-03-21T00:43:47.505Z,59.90
2019-03-21T00:45:53.660Z,59.20
2019-03-21T00:47:59.501Z,59.20
2019-03-21T00:50:05.629Z,59.10
2019-03-21T00:52:11.482Z,59.10
2019-03-21T00:54:18.018Z,59.20
2019-03-21T00:56:26.143Z,59.20
2019-03-21T00:58:32.346Z,59.20
2019-03-21T01:00:43.084Z,59.20
2019-03-21T01:03:08.452Z,59.10
2019-03-21T01:05:14.691Z,59.00
2019-03-21T01:07:21.152Z,59.20
2019-03-21T01:09:46.433Z,59.20
2019-03-21T01:11:52.905Z,59.30
2019-03-21T01:13:59.281Z,59.30
2019-03-21T01:16:05.464Z,59.40
2019-03-21T01:18:11.481Z,59.40
2019-03-21T01:20:17.978Z,59.30
2019-03-21T01:22:24.202Z,59.40
2019-03-21T01:24:30.471Z,59.50
2019-03-21T01:26:36.267Z,59.50
2019-03-21T01:28:42.412Z,59.50
2019-03-21T01:30:48.383Z,59.60
2019-03-21T01:32:54.177Z,59.60
2019-03-21T01:35:00.487Z,59.80
2019-03-21T01:37:06.517Z,60.60
2019-03-21T01:39:12.809Z,59.80
2019-03-21T01:41:19.153Z,59.70
2019-03-21T01:43:25.160Z,59.60
2019-03-21T01:45:31.490Z,59.60
2019-03-21T01:47:37.435Z,59.60
2019-03-21T01:49:43.142Z,59.40
2019-03-21T01:51:49.339Z,59.40
2019-03-21T01:53:55.930Z,59.40
2019-03-21T01:56:02.029Z,59.40
2019-03-21T01:58:08.194Z,59.30
2019-03-21T02:00:22.965Z,59.40
2019-03-21T02:02:30.019Z,59.40
2019-03-21T02:04:37.253Z,59.50
2019-03-21T02:06:44.682Z,59.60
2019-03-21T02:08:50.736Z,59.70
2019-03-21T02:10:56.410Z,59.70
2019-03-21T02:13:02.187Z,59.60
2019-03-21T02:15:10.077Z,59.80
2019-03-21T02:17:15.860Z,59.90
2019-03-21T02:19:21.921Z,59.70
2019-03-21T02:21:28.287Z,59.60
2019-03-21T02:23:34.076Z,59.50
2019-03-21T02:25:40.243Z,59.40
2019-03-21T02:27:46.306Z,59.40
2019-03-21T02:29:52.681Z,59.50
2019-03-21T02:31:59.774Z,59.60
2019-03-21T02:34:05.845Z,59.70
2019-03-21T02:36:12.165Z,59.90
2019-03-21T02:38:19.341Z,60.10
2019-03-21T02:40:25.317Z,60.20
2019-03-21T02:42:31.553Z,60.20
2019-03-21T02:44:37.956Z,60.10
2019-03-21T02:46:44.340Z,60.80
2019-03-21T02:48:50.038Z,60.20
2019-03-21T02:50:55.801Z,60.20
2019-03-21T02:53:01.860Z,60.20
2019-03-21T02:55:08.077Z,60.10
2019-03-21T02:57:15.160Z,60.10
2019-03-21T02:59:22.735Z,60.30
2019-03-21T03:01:30.479Z,61.00
2019-03-21T03:03:37.727Z,60.30
2019-03-21T03:05:45.072Z,60.40
2019-03-21T03:07:52.287Z,60.60
2019-03-21T03:10:02.463Z,60.60
2019-03-21T03:12:08.234Z,60.40
2019-03-21T03:14:13.972Z,60.40
2019-03-21T03:16:20.147Z,60.30
2019-03-21T03:18:26.122Z,60.30
2019-03-21T03:20:32.494Z,60.50
2019-03-21T03:22:38.744Z,60.50
2019-03-21T03:24:45.463Z,60.50
2019-03-21T03:26:51.448Z,60.60
2019-03-21T03:28:58.048Z,60.40
2019-03-21T03:31:05.015Z,60.70
2019-03-21T03:33:10.949Z,60.70
2019-03-21T03:35:16.753Z,60.60
2019-03-21T03:37:22.453Z,60.60
2019-03-21T03:39:28.499Z,60.50
2019-03-21T03:41:35.467Z,60.50
2019-03-21T03:43:41.297Z,60.40
2019-03-21T03:45:48.337Z,60.50
2019-03-21T03:47:54.583Z,60.60
2019-03-21T03:50:00.642Z,60.60
2019-03-21T03:52:06.395Z,60.50
2019-03-21T03:54:12.522Z,60.30
2019-03-21T03:56:18.762Z,60.40
2019-03-21T03:58:25.460Z,60.40
2019-03-21T04:00:31.148Z,60.40
2019-03-21T04:02:37.248Z,60.40
2019-03-21T04:04:43.771Z,60.20
2019-03-21T04:06:49.698Z,60.30
2019-03-21T04:08:55.544Z,60.60
2019-03-21T04:11:01.770Z,60.50
2019-03-21T04:13:07.766Z,60.60
2019-03-21T04:15:14.112Z,60.90
2019-03-21T04:17:20.208Z,61.00
2019-03-21T04:19:26.339Z,60.90
2019-03-21T04:21:32.318Z,61.80
2019-03-21T04:23:38.728Z,60.90
2019-03-21T04:25:58.406Z,60.80
2019-03-21T04:28:05.648Z,60.80
2019-03-21T04:30:13.746Z,60.70
2019-03-21T04:32:19.510Z,60.70
2019-03-21T04:34:25.724Z,61.60
2019-03-21T04:36:31.955Z,60.70
2019-03-21T04:38:38.023Z,60.60
2019-03-21T04:40:43.745Z,60.70
2019-03-21T04:42:50.077Z,60.80
2019-03-21T04:44:56.478Z,60.90
2019-03-21T04:47:03.165Z,61.00
2019-03-21T04:49:09.218Z,61.20
2019-03-21T04:51:16.043Z,61.40
2019-03-21T04:53:22.087Z,61.30
2019-03-21T04:55:28.262Z,61.30
2019-03-21T04:57:34.587Z,61.30
2019-03-21T04:59:41.323Z,61.30
2019-03-21T05:01:49.393Z,61.30
2019-03-21T05:03:55.493Z,61.10
2019-03-21T05:06:02.144Z,61.00
2019-03-21T05:08:08.183Z,61.00
2019-03-21T05:10:15.298Z,61.10
2019-03-21T05:12:21.716Z,61.00
2019-03-21T05:14:27.751Z,61.00
2019-03-21T05:16:33.571Z,61.00
2019-03-21T05:18:41.342Z,61.10
2019-03-21T05:20:47.530Z,61.10
2019-03-21T05:22:53.570Z,61.20
2019-03-21T05:25:00.565Z,61.30
2019-03-21T05:27:06.341Z,61.40
2019-03-21T05:29:12.391Z,61.40
2019-03-21T05:31:31.321Z,61.50
2019-03-21T05:33:37.445Z,61.60
2019-03-21T05:35:44.200Z,61.60
2019-03-21T05:37:53.080Z,61.60
2019-03-21T05:39:58.781Z,61.60
2019-03-21T05:42:09.122Z,61.70
2019-03-21T05:44:30.809Z,61.80
2019-03-21T05:46:37.050Z,61.80
2019-03-21T05:48:43.105Z,61.70
2019-03-21T05:50:49.608Z,61.70
2019-03-21T05:52:56.244Z,61.70
2019-03-21T05:55:02.207Z,61.90
2019-03-21T05:57:08.411Z,62.10
2019-03-21T05:59:14.412Z,62.20
2019-03-21T06:01:22.749Z,62.10
2019-03-21T06:03:32.973Z,62.10
2019-03-21T06:05:38.921Z,62.00
2019-03-21T06:07:56.360Z,62.10
2019-03-21T06:10:08.957Z,62.20
2019-03-21T06:12:15.912Z,62.20
2019-03-21T06:14:22.697Z,62.30
2019-03-21T06:16:37.258Z,62.50
2019-03-21T06:18:56.521Z,62.60
2019-03-21T06:21:28.087Z,62.60
2019-03-21T06:24:11.422Z,62.60
2019-03-21T06:27:01.474Z,62.70
2019-03-21T06:29:07.985Z,62.60
2019-03-21T06:31:13.703Z,62.60
2019-03-21T06:33:20.030Z,62.80
2019-03-21T06:35:25.839Z,62.90
2019-03-21T06:37:31.974Z,63.20
2019-03-21T06:39:37.818Z,63.50
2019-03-21T06:41:44.224Z,63.60
2019-03-21T06:43:50.176Z,63.70
2019-03-21T06:45:56.259Z,63.80
2019-03-21T06:48:02.063Z,63.90
2019-03-21T06:50:08.696Z,64.20
2019-03-21T06:52:15.091Z,64.00
2019-03-21T06:54:21.053Z,63.80
2019-03-21T06:56:26.968Z,63.80
2019-03-21T06:58:33.111Z,63.90
2019-03-21T07:00:39.600Z,64.10
2019-03-21T07:02:46.413Z,64.10
2019-03-21T07:04:52.185Z,64.90
2019-03-21T07:07:07.614Z,64.10
2019-03-21T07:09:07.756Z,64.00
2019-03-21T07:11:13.457Z,64.00
2019-03-21T07:13:19.841Z,63.90
2019-03-21T07:15:26.215Z,63.80
2019-03-21T07:17:32.655Z,64.00
2019-03-21T07:19:38.432Z,64.10
2019-03-21T07:21:44.767Z,64.20
2019-03-21T07:23:51.147Z,64.30
2019-03-21T07:25:56.923Z,64.40
2019-03-21T07:28:03.686Z,64.40
2019-03-21T07:30:12.200Z,64.50
2019-03-21T07:32:18.618Z,64.50
2019-03-21T07:34:25.337Z,64.60
2019-03-21T07:36:31.459Z,64.90
2019-03-21T07:38:37.638Z,65.00
2019-03-21T07:40:43.922Z,65.20
2019-03-21T07:42:49.685Z,65.50
2019-03-21T07:44:55.653Z,65.70
2019-03-21T07:47:12.079Z,65.80
2019-03-21T07:49:10.015Z,66.00
2019-03-21T07:51:16.550Z,66.10
2019-03-21T07:53:22.572Z,67.10
2019-03-21T07:55:28.264Z,66.50
2019-03-21T07:57:34.377Z,66.50
2019-03-21T07:59:40.418Z,66.40
2019-03-21T08:01:46.401Z,66.60
2019-03-21T08:03:52.798Z,66.70
2019-03-21T08:05:58.814Z,66.80
2019-03-21T08:08:04.628Z,67.20
2019-03-21T08:10:11.040Z,67.30
2019-03-21T08:12:17.608Z,67.70
2019-03-21T08:14:23.655Z,67.80
2019-03-21T08:16:30.066Z,67.90
2019-03-21T08:18:36.780Z,68.10
2019-03-21T08:20:43.033Z,69.20
2019-03-21T08:22:49.419Z,68.90
2019-03-21T08:24:55.861Z,69.10
2019-03-21T08:27:01.825Z,69.40
2019-03-21T08:29:08.437Z,69.40
2019-03-21T08:31:18.937Z,69.50
2019-03-21T08:33:24.778Z,69.50
2019-03-21T08:35:30.772Z,69.50
2019-03-21T08:37:36.915Z,69.20
2019-03-21T08:39:42.682Z,69.30
2019-03-21T08:41:48.873Z,69.50
2019-03-21T08:43:55.016Z,69.70
2019-03-21T08:46:01.432Z,69.40
2019-03-21T08:48:07.724Z,69.10
2019-03-21T08:50:14.359Z,68.20
2019-03-21T08:52:20.137Z,68.40
2019-03-21T08:54:26.359Z,68.20
2019-03-21T08:56:32.725Z,68.40
2019-03-21T08:58:38.906Z,68.50
2019-03-21T09:00:45.285Z,68.40
2019-03-21T09:02:51.550Z,68.50
2019-03-21T09:04:59.775Z,68.20
2019-03-21T09:07:05.653Z,68.40
2019-03-21T09:09:12.249Z,68.40
2019-03-21T09:11:18.676Z,68.40
2019-03-21T09:13:24.998Z,68.40
2019-03-21T09:15:31.177Z,68.10
2019-03-21T09:17:36.975Z,68.10
2019-03-21T09:19:43.127Z,68.20
2019-03-21T09:21:49.210Z,67.90
2019-03-21T09:23:55.294Z,67.10
2019-03-21T09:26:01.567Z,66.90
2019-03-21T09:28:08.139Z,66.80
2019-03-21T09:30:14.258Z,66.50
2019-03-21T09:32:20.430Z,65.90
2019-03-21T09:34:26.631Z,65.50
2019-03-21T09:36:33.410Z,64.50
2019-03-21T09:38:39.689Z,62.90
2019-03-21T09:40:46.037Z,62.10
2019-03-21T09:42:52.467Z,61.00
2019-03-21T09:44:58.272Z,60.00
2019-03-21T09:47:04.010Z,59.50
2019-03-21T09:49:10.348Z,58.90
2019-03-21T09:51:17.004Z,58.80
2019-03-21T09:53:22.793Z,58.40
2019-03-21T09:55:28.607Z,58.00
2019-03-21T09:57:34.517Z,57.50
2019-03-21T09:59:40.236Z,57.00
2019-03-21T10:01:46.116Z,56.50
2019-03-21T10:03:52.776Z,56.20
2019-03-21T10:05:59.115Z,55.70
2019-03-21T10:08:05.838Z,55.20
2019-03-21T10:10:16.814Z,54.70
2019-03-21T10:12:22.814Z,54.40
2019-03-21T10:14:29.243Z,54.70
2019-03-21T10:16:35.115Z,53.10
2019-03-21T10:18:40.995Z,52.60
2019-03-21T10:20:47.156Z,52.10
2019-03-21T10:22:53.276Z,52.00
2019-03-21T10:24:59.772Z,52.00
2019-03-21T10:27:05.790Z,51.60
2019-03-21T10:29:12.267Z,51.50
2019-03-21T10:31:18.487Z,50.90
2019-03-21T10:33:24.250Z,50.30
2019-03-21T10:35:32.573Z,49.70
2019-03-21T10:37:38.437Z,49.90
2019-03-21T10:39:45.306Z,49.50
2019-03-21T10:41:51.369Z,49.30
2019-03-21T10:43:57.781Z,48.80
2019-03-21T10:46:03.966Z,48.70
2019-03-21T10:48:09.875Z,48.30
2019-03-21T10:50:19.446Z,48.00
2019-03-21T10:52:25.646Z,47.60
2019-03-21T10:54:32.017Z,47.50
2019-03-21T10:56:39.418Z,47.40
2019-03-21T10:58:45.583Z,47.30
2019-03-21T11:00:51.482Z,47.00
2019-03-21T11:02:57.766Z,46.80
2019-03-21T11:05:03.874Z,46.40
2019-03-21T11:07:06.788Z,46.40
2019-03-21T11:09:13.860Z,45.90
2019-03-21T11:11:19.705Z,45.30
2019-03-21T11:13:26.784Z,45.30
2019-03-21T11:15:33.485Z,45.30
2019-03-21T11:17:40.088Z,44.80
2019-03-21T11:19:46.624Z,45.10
2019-03-21T11:21:52.966Z,44.80
2019-03-21T11:23:59.023Z,44.70
2019-03-21T11:26:04.963Z,44.90
2019-03-21T11:28:11.768Z,44.60
2019-03-21T11:30:23.877Z,44.30
2019-03-21T11:32:30.270Z,44.40
2019-03-21T11:34:36.707Z,44.20
2019-03-21T11:36:42.727Z,43.90
2019-03-21T11:38:48.443Z,43.60
2019-03-21T11:40:54.268Z,43.40
2019-03-21T11:43:01.529Z,43.30
2019-03-21T11:45:08.361Z,42.80
2019-03-21T11:47:14.449Z,42.60
2019-03-21T11:49:20.738Z,42.40
2019-03-21T11:51:26.800Z,42.60
2019-03-21T11:53:33.271Z,42.40
2019-03-21T11:55:39.754Z,42.20
2019-03-21T11:57:45.474Z,42.30
2019-03-21T11:59:52.407Z,41.90
2019-03-21T12:01:58.962Z,41.60
2019-03-21T12:04:05.383Z,41.60
2019-03-21T12:06:11.495Z,41.60
2019-03-21T12:08:18.271Z,41.30
2019-03-21T12:10:24.527Z,41.30
2019-03-21T12:12:31.010Z,41.30
2019-03-21T12:14:37.378Z,41.10
2019-03-21T12:16:43.774Z,41.00
2019-03-21T12:18:49.610Z,40.70
2019-03-21T12:20:56.131Z,40.60
2019-03-21T12:23:01.917Z,40.50
2019-03-21T12:25:08.430Z,41.30
2019-03-21T12:27:15.231Z,40.60
2019-03-21T12:29:21.240Z,40.20
2019-03-21T12:31:27.022Z,39.90
2019-03-21T12:33:33.493Z,39.70
2019-03-21T12:35:40.923Z,39.50
2019-03-21T12:37:46.672Z,39.60
2019-03-21T12:39:52.448Z,39.40
2019-03-21T12:41:59.325Z,39.00
2019-03-21T12:44:05.110Z,39.10
2019-03-21T12:46:11.278Z,39.10
2019-03-21T12:48:17.961Z,39.70
2019-03-21T12:50:24.018Z,39.40
2019-03-21T12:52:40.990Z,39.40
2019-03-21T12:54:38.737Z,39.10
2019-03-21T12:56:44.819Z,39.00
2019-03-21T12:58:50.859Z,38.40
2019-03-21T13:00:56.726Z,38.50
2019-03-21T13:03:02.539Z,38.80
2019-03-21T13:05:11.328Z,38.50
2019-03-21T13:07:17.371Z,38.60
2019-03-21T13:09:25.566Z,38.20
2019-03-21T13:11:31.261Z,38.30
2019-03-21T13:13:38.333Z,38.20
2019-03-21T13:15:44.857Z,38.60
2019-03-21T13:17:50.878Z,38.50
2019-03-21T13:19:57.173Z,38.60
2019-03-21T13:22:03.955Z,38.20
2019-03-21T13:24:10.841Z,38.60
2019-03-21T13:26:17.804Z,38.60
2019-03-21T13:28:24.197Z,38.10
2019-03-21T13:30:30.688Z,38.30
2019-03-21T13:32:36.451Z,37.90
2019-03-21T13:34:43.462Z,38.30
2019-03-21T13:36:49.646Z,38.70
2019-03-21T13:38:55.763Z,38.70
2019-03-21T13:41:02.515Z,38.20
2019-03-21T13:43:11.249Z,37.70
2019-03-21T13:45:17.844Z,37.70
2019-03-21T13:47:23.931Z,37.60
2019-03-21T13:49:30.082Z,37.70
2019-03-21T13:51:36.595Z,37.80
2019-03-21T13:53:43.171Z,37.60
2019-03-21T13:55:49.322Z,37.60
2019-03-21T13:57:55.309Z,37.70
2019-03-21T14:00:01.692Z,37.60
2019-03-21T14:02:07.402Z,37.60
2019-03-21T14:04:14.157Z,37.40
2019-03-21T14:06:20.310Z,37.20
2019-03-21T14:08:26.056Z,37.10
2019-03-21T14:10:32.537Z,36.80
2019-03-21T14:12:38.844Z,37.00
2019-03-21T14:14:44.940Z,36.80
2019-03-21T14:16:51.166Z,36.80
2019-03-21T14:18:57.899Z,36.90
2019-03-21T14:21:03.937Z,36.60
2019-03-21T14:23:16.922Z,37.30
2019-03-21T14:25:20.308Z,36.80
2019-03-21T14:27:26.333Z,37.10
2019-03-21T14:29:32.676Z,37.10
2019-03-21T14:31:39.054Z,37.10
2019-03-21T14:33:45.597Z,36.90
2019-03-21T14:35:51.616Z,36.90
2019-03-21T14:37:58.093Z,36.80
2019-03-21T14:40:04.700Z,36.90
2019-03-21T14:42:11.160Z,37.00
2019-03-21T14:44:16.941Z,37.00
2019-03-21T14:46:22.642Z,37.00
2019-03-21T14:48:28.602Z,36.60
2019-03-21T14:50:34.313Z,36.80
2019-03-21T14:52:41.328Z,36.70
2019-03-21T14:54:47.733Z,36.60
2019-03-21T14:56:54.092Z,36.40
2019-03-21T14:59:00.190Z,36.60
2019-03-21T15:01:06.442Z,36.60
2019-03-21T15:03:12.838Z,36.70
2019-03-21T15:05:19.150Z,37.50
2019-03-21T15:07:25.206Z,36.70
2019-03-21T15:09:31.357Z,36.60
2019-03-21T15:11:37.294Z,36.70
2019-03-21T15:13:43.633Z,36.90
2019-03-21T15:15:49.343Z,36.60
2019-03-21T15:17:58.481Z,36.40
2019-03-21T15:20:05.475Z,36.50
2019-03-21T15:22:11.494Z,36.60
2019-03-21T15:24:17.895Z,36.60
2019-03-21T15:26:23.931Z,36.60
2019-03-21T15:28:29.965Z,36.40
2019-03-21T15:30:35.822Z,35.90
2019-03-21T15:32:42.505Z,36.50
2019-03-21T15:34:51.166Z,36.40
2019-03-21T15:36:57.473Z,37.10
2019-03-21T15:39:04.428Z,37.50
2019-03-21T15:41:10.092Z,37.60
2019-03-21T15:43:15.827Z,38.00
2019-03-21T15:45:23.746Z,38.30
2019-03-21T15:47:30.342Z,38.20
2019-03-21T15:49:36.367Z,38.10
2019-03-21T15:51:42.305Z,38.20
2019-03-21T15:53:54.748Z,38.80
2019-03-21T15:55:55.574Z,38.90
2019-03-21T15:58:01.456Z,38.60
2019-03-21T16:00:10.272Z,38.80
2019-03-21T16:02:16.870Z,39.30
2019-03-21T16:04:23.006Z,39.60
2019-03-21T16:06:29.447Z,39.60
2019-03-21T16:08:35.413Z,39.50
2019-03-21T16:10:41.235Z,39.50
2019-03-21T16:12:47.512Z,40.00
2019-03-21T16:14:54.504Z,40.10
2019-03-21T16:17:00.277Z,40.10
2019-03-21T16:19:05.979Z,40.70
2019-03-21T16:21:11.728Z,40.90
2019-03-21T16:23:18.023Z,41.10
2019-03-21T16:25:24.765Z,41.60
2019-03-21T16:27:30.869Z,42.60
2019-03-21T16:29:37.010Z,42.50
2019-03-21T16:31:42.910Z,43.10
2019-03-21T16:33:49.158Z,42.60
2019-03-21T16:35:56.322Z,43.40
2019-03-21T16:38:02.682Z,42.90
2019-03-21T16:40:09.587Z,43.00
2019-03-21T16:42:15.471Z,43.20
2019-03-21T16:44:22.025Z,43.30
2019-03-21T16:46:29.015Z,43.40
2019-03-21T16:48:35.320Z,43.60
2019-03-21T16:50:41.244Z,43.80
2019-03-21T16:52:46.997Z,44.10
2019-03-21T16:54:53.217Z,44.30
2019-03-21T16:56:59.271Z,44.70
2019-03-21T16:59:05.109Z,45.00
2019-03-21T17:01:11.109Z,45.10
2019-03-21T17:03:17.013Z,45.30
2019-03-21T17:05:23.053Z,45.40
2019-03-21T17:07:28.821Z,45.70
2019-03-21T17:09:36.182Z,45.90
2019-03-21T17:11:42.158Z,46.20
2019-03-21T17:13:48.995Z,46.10
2019-03-21T17:15:54.658Z,46.40
2019-03-21T17:18:00.448Z,46.70
2019-03-21T17:20:07.124Z,46.80
2019-03-21T17:22:12.967Z,47.00
2019-03-21T17:24:28.890Z,47.20
2019-03-21T17:26:26.748Z,47.20
2019-03-21T17:28:32.738Z,47.20
2019-03-21T17:30:38.519Z,47.50
2019-03-21T17:32:44.282Z,47.60
2019-03-21T17:34:50.583Z,47.80
2019-03-21T17:36:56.673Z,47.90
2019-03-21T17:39:02.607Z,48.30
2019-03-21T17:41:08.627Z,48.40
2019-03-21T17:43:14.345Z,48.50
2019-03-21T17:45:21.565Z,48.60
2019-03-21T17:47:27.755Z,48.70
2019-03-21T17:49:34.809Z,48.80
2019-03-21T17:51:40.943Z,49.00
2019-03-21T17:53:46.948Z,49.00
2019-03-21T17:55:52.758Z,49.00
2019-03-21T17:57:58.458Z,49.10
2019-03-21T18:00:05.595Z,49.30
2019-03-21T18:02:12.420Z,49.30
2019-03-21T18:04:18.571Z,49.40
2019-03-21T18:06:24.272Z,49.40
2019-03-21T18:08:30.704Z,49.50
2019-03-21T18:10:36.711Z,49.50
2019-03-21T18:12:42.381Z,49.70
2019-03-21T18:14:48.854Z,49.80
2019-03-21T18:16:54.922Z,49.90
2019-03-21T18:19:01.212Z,50.00
2019-03-21T18:21:07.079Z,50.10
2019-03-21T18:23:13.344Z,50.40
2019-03-21T18:25:19.854Z,50.40
2019-03-21T18:27:26.301Z,50.30
2019-03-21T18:29:32.381Z,50.60
2019-03-21T18:31:38.070Z,50.60
2019-03-21T18:33:43.748Z,50.80
2019-03-21T18:35:49.549Z,50.90
2019-03-21T18:37:55.607Z,50.90
2019-03-21T18:40:02.423Z,51.10
2019-03-21T18:42:08.450Z,51.20
2019-03-21T18:44:14.845Z,51.20
2019-03-21T18:46:21.187Z,51.40
2019-03-21T18:48:27.633Z,51.50
2019-03-21T18:50:33.618Z,51.50
2019-03-21T18:52:40.091Z,51.70
2019-03-21T18:54:46.032Z,51.80
2019-03-21T18:56:51.805Z,51.80
2019-03-21T18:58:57.598Z,52.10
2019-03-21T19:01:03.730Z,52.00
2019-03-21T19:03:09.691Z,52.70
2019-03-21T19:05:15.660Z,52.10
2019-03-21T19:07:21.906Z,52.30
2019-03-21T19:09:27.901Z,52.30
2019-03-21T19:11:33.562Z,52.30
2019-03-21T19:13:40.346Z,52.30
2019-03-21T19:15:46.149Z,52.40
2019-03-21T19:17:51.889Z,52.50
2019-03-21T19:19:57.996Z,52.60
2019-03-21T19:22:03.839Z,52.60
2019-03-21T19:24:11.607Z,52.90
2019-03-21T19:26:17.819Z,52.90
2019-03-21T19:28:24.298Z,52.90
2019-03-21T19:30:30.067Z,53.00
2019-03-21T19:32:35.740Z,53.00
2019-03-21T19:34:42.332Z,53.10
2019-03-21T19:36:48.625Z,53.20
2019-03-21T19:38:55.048Z,53.20
2019-03-21T19:41:01.067Z,53.30
2019-03-21T19:43:07.169Z,53.30
2019-03-21T19:45:13.421Z,53.40
2019-03-21T19:47:24.886Z,53.50
2019-03-21T19:49:26.597Z,53.60
2019-03-21T19:51:33.488Z,53.70
2019-03-21T19:53:39.480Z,53.70
2019-03-21T19:55:45.257Z,53.70
2019-03-21T19:57:51.350Z,53.80
2019-03-21T19:59:57.379Z,53.90
2019-03-21T20:02:03.161Z,53.90
2019-03-21T20:04:08.917Z,54.00
2019-03-21T20:06:15.112Z,54.10
2019-03-21T20:08:20.795Z,54.20
2019-03-21T20:10:33.106Z,54.20
2019-03-21T20:12:39.311Z,54.10
2019-03-21T20:14:45.386Z,54.20
2019-03-21T20:16:51.703Z,54.20
2019-03-21T20:18:58.105Z,54.20
2019-03-21T20:21:04.441Z,54.30
2019-03-21T20:23:11.169Z,54.50
2019-03-21T20:25:17.880Z,54.30
2019-03-21T20:27:24.470Z,54.40
2019-03-21T20:29:31.340Z,54.40
2019-03-21T20:31:38.029Z,54.40
2019-03-21T20:33:45.083Z,54.50
2019-03-21T20:35:54.996Z,54.60
2019-03-21T20:38:02.711Z,54.60
2019-03-21T20:40:10.777Z,54.80
2019-03-21T20:42:18.334Z,54.90
2019-03-21T20:44:24.609Z,54.90
2019-03-21T20:46:31.028Z,54.90
2019-03-21T20:48:33.971Z,54.90
2019-03-21T20:50:40.894Z,54.90
2019-03-21T20:52:47.574Z,54.90
2019-03-21T20:54:53.260Z,55.00
2019-03-21T20:56:59.609Z,55.00
2019-03-21T20:59:05.628Z,54.90
2019-03-21T21:01:11.850Z,54.90
2019-03-21T21:03:17.971Z,56.40
2019-03-21T21:05:26.406Z,56.40
2019-03-21T21:07:32.325Z,56.20
2019-03-21T21:09:38.151Z,56.00
2019-03-21T21:11:43.968Z,55.90
2019-03-21T21:13:50.142Z,55.80
2019-03-21T21:15:56.225Z,55.80
2019-03-21T21:18:02.441Z,55.70
2019-03-21T21:20:09.319Z,55.60
2019-03-21T21:22:15.701Z,55.70
2019-03-21T21:24:21.727Z,55.70
2019-03-21T21:26:27.720Z,55.60
2019-03-21T21:28:34.892Z,55.50
2019-03-21T21:30:40.699Z,55.50
2019-03-21T21:32:46.778Z,55.40
2019-03-21T21:34:54.630Z,55.50
2019-03-21T21:37:00.105Z,55.60
2019-03-21T21:39:08.622Z,55.50
2019-03-21T21:41:15.042Z,55.60
2019-03-21T21:43:22.278Z,55.60
2019-03-21T21:45:28.281Z,55.70
2019-03-21T21:47:34.043Z,55.60
2019-03-21T21:49:39.745Z,55.80
2019-03-21T21:51:45.531Z,55.80
2019-03-21T21:53:51.272Z,55.70
2019-03-21T21:55:57.773Z,55.70
2019-03-21T21:58:03.807Z,55.80
2019-03-21T22:00:12.616Z,55.70
2019-03-21T22:02:18.660Z,55.80
2019-03-21T22:04:26.511Z,55.90
2019-03-21T22:06:32.143Z,55.90
2019-03-21T22:08:37.949Z,56.00
2019-03-21T22:10:43.619Z,56.10
2019-03-21T22:12:49.506Z,56.20
2019-03-21T22:14:55.308Z,56.20
2019-03-21T22:17:01.532Z,56.30
2019-03-21T22:19:07.610Z,56.10
2019-03-21T22:21:14.262Z,56.20
2019-03-21T22:23:20.317Z,56.20
2019-03-21T22:25:26.535Z,56.30
2019-03-21T22:27:32.223Z,56.40
2019-03-21T22:29:38.536Z,56.10
2019-03-21T22:31:44.518Z,56.10
2019-03-21T22:33:50.875Z,56.10
2019-03-21T22:35:56.639Z,56.10
2019-03-21T22:38:02.665Z,56.00
2019-03-21T22:40:10.613Z,56.10
2019-03-21T22:42:16.282Z,56.30
2019-03-21T22:44:22.447Z,56.30
2019-03-21T22:46:28.207Z,57.10
2019-03-21T22:48:34.347Z,57.20
2019-03-21T22:50:40.346Z,57.90
2019-03-21T22:52:46.529Z,57.90
2019-03-21T22:54:52.890Z,57.40
2019-03-21T22:56:58.848Z,57.40
2019-03-21T22:59:04.729Z,57.40
2019-03-21T23:01:11.018Z,57.40
2019-03-21T23:03:17.417Z,57.40
2019-03-21T23:05:23.501Z,57.50
2019-03-21T23:07:29.818Z,57.50
2019-03-21T23:09:35.922Z,57.50
2019-03-21T23:11:41.656Z,57.50
2019-03-21T23:13:48.068Z,57.60
2019-03-21T23:15:53.879Z,57.70
2019-03-21T23:17:59.855Z,57.70
2019-03-21T23:20:06.749Z,57.70
2019-03-21T23:22:12.886Z,57.80
2019-03-21T23:24:18.604Z,57.80
2019-03-21T23:26:25.073Z,57.70
2019-03-21T23:28:31.395Z,57.80
2019-03-21T23:30:37.710Z,57.90
2019-03-21T23:32:44.123Z,57.90
2019-03-21T23:34:49.863Z,57.90
2019-03-21T23:36:55.604Z,58.00
2019-03-21T23:39:01.771Z,57.90
2019-03-21T23:41:08.074Z,57.70
2019-03-21T23:43:13.832Z,58.00
2019-03-21T23:45:20.232Z,58.20
2019-03-21T23:47:26.943Z,58.20
2019-03-21T23:49:32.991Z,58.30
2019-03-21T23:51:38.837Z,58.30
2019-03-21T23:53:44.598Z,58.40
2019-03-21T23:55:50.694Z,58.30
2019-03-21T23:57:57.287Z,58.30
